createdAt,value
2022-10-13T00:05:01.625Z,0.019
2022-10-13T00:10:13.658Z,0.007
2022-10-13T00:15:25.638Z,0
2022-10-13T00:20:37.797Z,0.018
2022-10-13T00:25:49.650Z,-0.016
2022-10-13T00:31:01.795Z,0.036
2022-10-13T00:36:13.700Z,0.02
2022-10-13T00:41:25.600Z,-0.023
2022-10-13T00:46:37.818Z,0.029
2022-10-13T00:51:49.760Z,0.015
2022-10-13T00:57:01.783Z,0.021
2022-10-13T01:02:13.830Z,0
2022-10-13T01:07:25.779Z,0.01
2022-10-13T01:12:37.779Z,-0.024
2022-10-13T01:17:49.810Z,0.024
2022-10-13T01:23:01.779Z,0.007
2022-10-13T01:28:13.947Z,0.024
2022-10-13T01:33:26.399Z,0.007
2022-10-13T01:38:38.379Z,0.016
2022-10-13T01:43:50.534Z,0.013
2022-10-13T01:49:02.791Z,0.016
2022-10-13T01:54:14.869Z,0.015
2022-10-13T01:59:26.843Z,0.005
2022-10-13T02:04:38.999Z,0.019
2022-10-13T02:09:51.629Z,0.009
2022-10-13T02:15:04.795Z,0.013
2022-10-13T02:20:16.709Z,0.018
2022-10-13T02:25:28.598Z,0.007
2022-10-13T02:30:40.723Z,0.006
2022-10-13T02:35:52.790Z,0.01
2022-10-13T02:41:04.689Z,0.012
2022-10-13T02:46:16.703Z,-0.019
2022-10-13T02:51:28.739Z,0.022
2022-10-13T02:56:40.648Z,0.006
2022-10-13T03:01:52.711Z,-0.015
2022-10-13T03:07:04.659Z,0.017
2022-10-13T03:12:16.795Z,0.038
2022-10-13T03:17:30.163Z,0.026
2022-10-13T03:22:44.885Z,0.005
2022-10-13T03:28:00.360Z,0.006
2022-10-13T03:33:12.463Z,0.01
2022-10-13T03:38:24.567Z,0.001
2022-10-13T03:43:36.410Z,0.001
2022-10-13T03:48:48.494Z,-0.008
2022-10-13T03:54:00.429Z,-0.006
2022-10-13T03:59:12.249Z,0.006
2022-10-13T04:04:24.113Z,0.011
2022-10-13T04:09:36.117Z,-0.012
2022-10-13T04:14:47.959Z,0.021
2022-10-13T04:19:59.976Z,0.001
2022-10-13T04:25:12.019Z,0.005
2022-10-13T04:30:23.934Z,0.01
2022-10-13T04:35:35.928Z,0.004
2022-10-13T04:40:47.699Z,0.007
2022-10-13T04:45:59.699Z,0.011
2022-10-13T04:51:11.452Z,0
2022-10-13T04:56:23.212Z,0.002
2022-10-13T05:01:35.079Z,0.01
2022-10-13T05:07:12.880Z,-0.001
2022-10-13T05:12:27.198Z,0.009
2022-10-13T05:17:38.567Z,0.008
2022-10-13T05:22:50.258Z,0.015
2022-10-13T05:28:02.282Z,0.01
2022-10-13T05:33:14.184Z,0.018
2022-10-13T05:38:26.308Z,0.012
2022-10-13T05:43:38.075Z,0.019
2022-10-13T05:48:49.694Z,0.001
2022-10-13T05:54:01.499Z,-0.008
2022-10-13T05:59:13.353Z,0.016
2022-10-13T06:04:25.103Z,0.033
2022-10-13T06:09:47.803Z,0.012
2022-10-13T06:14:59.588Z,0.031
2022-10-13T06:20:11.365Z,0.038
2022-10-13T06:25:23.237Z,0.008
2022-10-13T06:30:35.141Z,0.046
2022-10-13T06:35:47.521Z,0.034
2022-10-13T06:40:59.274Z,0.038
2022-10-13T06:46:11.250Z,0.032
2022-10-13T06:51:23.463Z,0.037
2022-10-13T06:56:35.442Z,0.045
2022-10-13T07:01:47.340Z,0.042
2022-10-13T07:06:59.235Z,0.04
2022-10-13T07:12:11.101Z,0.027
2022-10-13T07:17:23.262Z,0.005
2022-10-13T07:22:35.051Z,0.05
2022-10-13T07:27:47.257Z,0.04
2022-10-13T07:32:59.121Z,0.067
2022-10-13T07:38:11.112Z,0.058
2022-10-13T07:43:23.226Z,0.036
2022-10-13T07:48:35.321Z,0.035
2022-10-13T07:53:47.291Z,-0.006
2022-10-13T07:58:59.419Z,0.052
2022-10-13T08:04:11.531Z,0.031
2022-10-13T08:09:23.700Z,0.057
2022-10-13T08:14:36.024Z,0.048
2022-10-13T08:19:48.370Z,0.001
2022-10-13T08:25:00.579Z,0.042
2022-10-13T08:30:12.780Z,0.044
2022-10-13T08:35:25.315Z,0.043
2022-10-13T08:40:37.424Z,0.02
2022-10-13T08:45:49.536Z,0.01
2022-10-13T08:51:01.824Z,0.034
2022-10-13T08:56:14.025Z,0.034
2022-10-13T09:01:26.300Z,-0.015
2022-10-13T09:06:38.662Z,0.047
2022-10-13T09:11:50.813Z,0.046
2022-10-13T09:17:03.192Z,0.043
2022-10-13T09:22:15.523Z,0.039
2022-10-13T09:27:28.173Z,0.024
2022-10-13T09:32:40.315Z,0.031
2022-10-13T09:37:52.583Z,0.043
2022-10-13T09:43:04.911Z,0.038
2022-10-13T09:48:17.196Z,0.031
2022-10-13T09:53:29.678Z,0.021
2022-10-13T09:58:41.823Z,0.054
2022-10-13T10:03:54.365Z,0.049
2022-10-13T10:09:07.208Z,0.049
2022-10-13T10:14:19.328Z,0.04
2022-10-13T10:19:31.431Z,0.059
2022-10-13T10:24:43.832Z,0.07
2022-10-13T10:29:56.187Z,0.064
2022-10-13T10:35:09.073Z,0.017
2022-10-13T10:40:21.238Z,0.031
2022-10-13T10:45:33.578Z,0.049
2022-10-13T10:50:46.080Z,0.027
2022-10-13T10:55:58.339Z,0.055
2022-10-13T11:01:10.760Z,0.032
2022-10-13T11:06:23.366Z,0.085
2022-10-13T11:11:38.023Z,0.497
2022-10-13T11:16:52.978Z,0.42
2022-10-13T11:22:07.404Z,0.189
2022-10-13T11:27:23.873Z,0.167
2022-10-13T11:32:37.234Z,0.135
2022-10-13T11:43:03.755Z,0.088
2022-10-13T11:48:24.686Z,0.053
2022-10-13T11:53:37.591Z,0.212
2022-10-13T11:58:49.945Z,0.066
2022-10-13T12:19:34.822Z,-0.015
2022-10-13T12:29:58.152Z,0.01
2022-10-13T12:35:10.914Z,-0.027
2022-10-13T12:50:43.854Z,0.049
2022-10-13T12:55:57.939Z,-0.007
2022-10-13T13:21:50.177Z,-0.038
2022-10-13T13:27:02.641Z,0.167
2022-10-13T13:32:15.201Z,-0.012
2022-10-13T13:42:39.835Z,-0.031
2022-10-13T14:18:54.203Z,-0.013
2022-10-13T14:24:06.321Z,-0.037
2022-10-13T14:29:18.454Z,0.009
2022-10-13T14:34:30.580Z,0.004
2022-10-13T14:39:42.853Z,-0.011
2022-10-13T14:44:54.992Z,-0.042
2022-10-13T14:50:07.246Z,0
2022-10-13T15:00:29.875Z,-0.034
2022-10-13T15:05:41.862Z,-0.045
2022-10-13T15:16:03.696Z,-0.007
2022-10-13T15:21:15.738Z,-0.013
2022-10-13T15:52:18.241Z,-0.047
2022-10-13T16:08:05.177Z,-0.028
2022-10-13T16:13:17.142Z,-0.035
2022-10-13T16:28:49.205Z,-0.015
2022-10-13T16:34:01.400Z,-0.017
2022-10-13T16:39:13.578Z,-0.026
2022-10-13T16:49:35.597Z,-0.014
2022-10-13T16:54:47.806Z,-0.012
2022-10-13T16:59:59.939Z,-0.045
2022-10-13T17:05:12.081Z,-0.032
2022-10-13T17:10:24.127Z,0.006
2022-10-13T17:15:36.476Z,-0.038
2022-10-13T17:20:48.639Z,-0.014
2022-10-13T17:26:00.692Z,-0.033
2022-10-13T17:31:12.949Z,0.015
2022-10-13T17:36:25.265Z,0.009
2022-10-13T17:41:37.506Z,0.021
2022-10-13T17:46:49.782Z,0.004
2022-10-13T17:52:01.968Z,-0.034
2022-10-13T17:57:14.469Z,0.008
2022-10-13T18:02:26.505Z,0.004
2022-10-13T18:07:38.719Z,-0.005
2022-10-13T18:12:50.886Z,0
2022-10-13T18:18:03.165Z,-0.009
2022-10-13T18:28:32.634Z,-0.014
2022-10-13T18:33:45.038Z,-0.01
2022-10-13T18:38:57.058Z,-0.006
2022-10-13T18:44:09.198Z,-0.011
2022-10-13T18:54:44.344Z,0.008
2022-10-13T18:59:56.307Z,0
2022-10-13T19:05:08.343Z,-0.01
2022-10-13T19:10:20.444Z,0.005
2022-10-13T19:15:32.580Z,0
2022-10-13T19:20:50.334Z,-0.002
2022-10-13T19:26:06.875Z,-0.033
2022-10-13T19:31:24.823Z,0.012
2022-10-13T19:36:36.891Z,0.006
2022-10-13T19:41:49.068Z,0.002
2022-10-13T19:47:01.032Z,0.011
2022-10-13T19:52:12.916Z,0.004
2022-10-13T19:57:25.178Z,0.002
2022-10-13T20:02:37.426Z,-0.001
2022-10-13T20:07:49.433Z,-0.002
2022-10-13T20:13:01.775Z,0
2022-10-13T20:18:14.035Z,0.003
2022-10-13T20:23:26.223Z,0
2022-10-13T20:28:42.673Z,0.022
2022-10-13T20:33:59.511Z,0.003
2022-10-13T20:39:11.490Z,-0.003
2022-10-13T20:44:23.806Z,-0.009
2022-10-13T20:49:36.361Z,0
2022-10-13T20:54:48.232Z,-0.006
2022-10-13T21:00:00.316Z,-0.012
2022-10-13T21:05:12.400Z,-0.006
2022-10-13T21:10:24.385Z,0.001
2022-10-13T21:15:36.377Z,0.002
2022-10-13T21:20:48.252Z,0
2022-10-13T21:26:00.249Z,0.008
2022-10-13T21:31:11.944Z,0.008
2022-10-13T21:36:23.989Z,0.001
2022-10-13T21:41:35.750Z,0.001
2022-10-13T21:46:47.509Z,0.001
2022-10-13T21:51:59.454Z,0.004
2022-10-13T22:02:41.289Z,-0.001
2022-10-13T22:07:52.927Z,-0.003
2022-10-13T22:13:04.635Z,0.009
2022-10-13T22:18:16.489Z,-0.011
2022-10-13T22:23:28.390Z,-0.007
2022-10-13T22:28:41.277Z,0.014
2022-10-13T22:33:53.077Z,0
2022-10-13T22:39:05.158Z,0.005
2022-10-13T22:44:17.093Z,0.013
2022-10-13T22:49:28.890Z,0.009
2022-10-13T22:54:40.915Z,0.007
2022-10-13T22:59:52.736Z,0.003
2022-10-13T23:05:04.793Z,-0.006
2022-10-13T23:10:16.725Z,0.001
2022-10-13T23:15:28.549Z,0.007
2022-10-13T23:20:40.417Z,0.003
2022-10-13T23:25:52.165Z,0.01
2022-10-13T23:31:04.003Z,-0.02
2022-10-13T23:36:15.943Z,0.023
2022-10-13T23:41:27.805Z,0.016
2022-10-13T23:46:39.571Z,-0.02
2022-10-13T23:51:51.365Z,0.033
2022-10-13T23:57:03.307Z,0.012
